Time;durP1;ratioP1;P1;durP2;ratioP2;P2;SDS_P1;SDS_P2;PMS_P1;PMS_P2;Temp;Humidity;BMP_temperature;BMP_pressure;BME280_temperature;BME280_humidity;BME280_pressure;Samples;Min_cycle;Max_cycle;Signal;HPM_P1;HPM_P2
2021/05/03 00:02:10;;;;;;;21.10;14.75;;;;;;;5.89;76.91;96645.09;5069073;28;20106;-67
2021/05/03 00:04:36;;;;;;;19.58;13.95;;;;;;;5.96;76.66;96635.63;5070524;28;20445;-66
2021/05/03 00:07:02;;;;;;;18.23;14.10;;;;;;;5.84;76.72;96637.81;5068919;28;20048;-66
2021/05/03 00:09:28;;;;;;;18.88;14.18;;;;;;;5.84;76.91;96639.72;5070622;28;20044;-66
2021/05/03 00:11:54;;;;;;;20.25;14.20;;;;;;;5.82;76.94;96639.22;5069085;28;20041;-67
2021/05/03 00:14:20;;;;;;;19.27;13.70;;;;;;;5.86;77.19;96635.66;5070259;28;20052;-67
2021/05/03 00:16:47;;;;;;;21.83;14.98;;;;;;;5.92;77.04;96639.97;5070242;28;20083;-66
2021/05/03 00:19:13;;;;;;;20.70;14.00;;;;;;;5.93;76.63;96636.19;5072896;28;20055;-66
2021/05/03 00:21:38;;;;;;;19.27;13.88;;;;;;;5.94;76.43;96632.38;5084699;28;20041;-66
2021/05/03 00:24:05;;;;;;;17.42;13.10;;;;;;;5.95;76.26;96644.84;5093407;28;20090;-67
2021/05/03 00:26:31;;;;;;;17.48;12.80;;;;;;;5.94;76.50;96645.91;5094163;28;20040;-66
2021/05/03 00:28:57;;;;;;;17.75;12.93;;;;;;;5.89;76.43;96650.50;5093011;28;20055;-66
2021/05/03 00:31:23;;;;;;;19.88;12.85;;;;;;;5.93;76.46;96655.09;5074060;28;20457;-66
2021/05/03 00:33:50;;;;;;;17.08;12.55;;;;;;;5.96;76.58;96651.03;5073233;28;20128;-66
2021/05/03 00:36:16;;;;;;;19.17;13.55;;;;;;;5.87;76.63;96652.69;5073871;28;20051;-68
2021/05/03 00:38:42;;;;;;;17.13;12.98;;;;;;;5.83;76.69;96652.44;5073216;28;20048;-66
2021/05/03 00:41:08;;;;;;;17.65;13.13;;;;;;;5.88;76.72;96649.69;5073509;28;20048;-66
2021/05/03 00:43:34;;;;;;;19.13;14.15;;;;;;;5.89;76.55;96651.31;5073365;28;20044;-66
2021/05/03 00:46:00;;;;;;;17.95;12.55;;;;;;;5.89;76.90;96645.91;5073709;28;20454;-66
2021/05/03 00:48:26;;;;;;;17.98;12.57;;;;;;;5.86;76.66;96657.28;5073286;28;20094;-66
2021/05/03 00:50:53;;;;;;;17.55;12.57;;;;;;;5.79;76.77;96659.47;5077015;28;20101;-66
2021/05/03 00:53:19;;;;;;;16.70;12.68;;;;;;;5.80;77.28;96658.41;5093687;28;20043;-66
2021/05/03 00:55:45;;;;;;;16.05;12.23;;;;;;;5.82;77.15;96661.63;5079360;28;20044;-66
2021/05/03 00:58:12;;;;;;;17.00;12.23;;;;;;;5.83;77.14;96657.84;5073582;28;20134;-66
2021/05/03 01:00:38;;;;;;;15.15;11.98;;;;;;;5.69;77.01;96656.84;5072769;28;20423;-66
2021/05/03 01:03:05;;;;;;;20.10;11.95;;;;;;;5.73;77.51;96658.69;5073410;28;20109;-67
2021/05/03 01:05:32;;;;;;;17.50;11.80;;;;;;;5.75;77.28;96661.94;5072588;28;20051;-66
2021/05/03 01:08:00;;;;;;;16.58;12.48;;;;;;;5.75;77.39;96667.34;5073313;28;20070;-66
2021/05/03 01:10:27;;;;;;;15.63;11.65;;;;;;;5.75;77.19;96658.44;5072807;28;20052;-66
2021/05/03 01:12:54;;;;;;;15.32;11.85;;;;;;;5.78;77.32;96665.97;5072874;28;20048;-66
2021/05/03 01:15:23;;;;;;;16.20;12.27;;;;;;;5.75;77.32;96666.56;5072820;28;20041;-66
2021/05/03 01:17:55;;;;;;;15.43;11.57;;;;;;;5.70;77.49;96663.88;5072484;28;20557;-67
2021/05/03 01:20:21;;;;;;;16.33;11.60;;;;;;;5.78;77.58;96665.16;5073310;28;20128;-66
2021/05/03 01:22:48;;;;;;;16.25;12.75;;;;;;;5.78;77.74;96667.88;5092168;28;20509;-66
2021/05/03 01:25:14;;;;;;;22.52;13.27;;;;;;;5.77;77.45;96664.38;5073657;28;20048;-66
2021/05/03 01:27:41;;;;;;;16.17;11.68;;;;;;;5.81;77.49;96670.84;5072409;28;20056;-66
2021/05/03 01:30:09;;;;;;;16.25;12.25;;;;;;;5.87;77.32;96667.00;5072014;28;20052;-66
2021/05/03 01:32:35;;;;;;;17.20;12.70;;;;;;;5.98;77.37;96660.47;5072495;28;20114;-66
2021/05/03 01:35:01;;;;;;;16.67;11.32;;;;;;;6.03;76.87;96659.63;5072129;28;20049;-68
2021/05/03 01:37:27;;;;;;;16.55;11.63;;;;;;;6.08;76.85;96661.50;5072612;28;20045;-66
2021/05/03 01:39:55;;;;;;;17.90;12.05;;;;;;;6.05;76.42;96665.56;5071840;28;20059;-67
2021/05/03 01:42:22;;;;;;;16.33;11.63;;;;;;;6.04;76.42;96663.94;5072451;28;20461;-66
2021/05/03 01:44:49;;;;;;;14.98;11.07;;;;;;;6.00;76.87;96669.13;5072952;28;20051;-66
2021/05/03 01:47:15;;;;;;;14.70;10.88;;;;;;;6.01;76.76;96668.03;5072758;28;20075;-67
2021/05/03 01:49:41;;;;;;;15.57;11.63;;;;;;;6.03;76.87;96670.44;5071789;28;20045;-66
2021/05/03 01:52:07;;;;;;;16.58;12.05;;;;;;;5.93;76.88;96662.41;5086595;28;20605;-68
2021/05/03 01:54:34;;;;;;;17.75;12.18;;;;;;;5.91;77.14;96670.81;5092167;28;20055;-66
2021/05/03 01:57:01;;;;;;;15.75;11.68;;;;;;;5.93;77.18;96671.31;5092516;28;20044;-66
2021/05/03 01:59:32;;;;;;;16.75;11.45;;;;;;;5.88;77.28;96671.31;5086656;28;20040;-66
2021/05/03 02:01:58;;;;;;;15.77;11.88;;;;;;;5.86;77.84;96678.91;5071598;28;20530;-66
2021/05/03 02:04:24;;;;;;;16.55;11.63;;;;;;;5.90;77.84;96679.97;5071896;28;20045;-66
2021/05/03 02:06:50;;;;;;;16.15;12.05;;;;;;;5.89;77.83;96683.75;5071369;28;20044;-67
2021/05/03 02:09:16;;;;;;;16.92;11.50;;;;;;;5.85;77.74;96677.31;5072091;28;20131;-67
2021/05/03 02:11:42;;;;;;;17.05;11.85;;;;;;;5.91;77.80;96681.63;5071274;28;20518;-67
2021/05/03 02:14:10;;;;;;;16.92;12.02;;;;;;;5.90;77.96;96687.25;5072218;28;20048;-67
2021/05/03 02:16:37;;;;;;;16.73;12.50;;;;;;;5.89;77.98;96694.56;5072146;28;20123;-66
2021/05/03 02:19:03;;;;;;;15.50;11.80;;;;;;;5.95;78.32;96681.84;5071642;28;20071;-67
2021/05/03 02:21:29;;;;;;;17.35;12.55;;;;;;;5.89;78.17;96680.22;5080804;28;20089;-66
2021/05/03 02:23:55;;;;;;;18.38;12.95;;;;;;;5.93;78.05;96682.13;5091953;28;20051;-67
2021/05/03 02:26:21;;;;;;;17.30;12.25;;;;;;;5.91;78.17;96676.22;5091570;28;20059;-67
2021/05/03 02:28:49;;;;;;;16.13;12.05;;;;;;;5.89;78.18;96675.63;5087002;28;20059;-66
2021/05/03 02:31:16;;;;;;;16.65;11.43;;;;;;;5.86;78.16;96678.09;5051999;28;20051;-66
2021/05/03 02:33:42;;;;;;;15.32;11.90;;;;;;;5.86;78.38;96668.09;5050757;28;20065;-66
2021/05/03 02:36:08;;;;;;;17.52;11.73;;;;;;;5.81;78.42;96665.44;5051621;28;20160;-66
2021/05/03 02:38:34;;;;;;;18.02;12.57;;;;;;;5.78;78.53;96665.97;5050741;28;20041;-66
2021/05/03 02:41:00;;;;;;;17.80;12.65;;;;;;;5.72;78.49;96667.91;5051007;28;20094;-66
2021/05/03 02:43:26;;;;;;;19.58;13.23;;;;;;;5.67;78.84;96665.22;5050832;28;20044;-66
2021/05/03 02:45:52;;;;;;;18.73;13.68;;;;;;;5.64;78.61;96667.69;5051292;28;20041;-66
2021/05/03 02:48:19;;;;;;;19.75;13.60;;;;;;;5.64;78.93;96668.50;5050874;28;20495;-67
2021/05/03 02:50:45;;;;;;;18.00;12.80;;;;;;;5.65;79.03;96669.31;5057033;28;20047;-67
2021/05/03 02:53:11;;;;;;;18.48;12.73;;;;;;;5.64;79.15;96675.81;5091331;28;20048;-66
2021/05/03 02:55:37;;;;;;;17.17;12.40;;;;;;;5.64;79.08;96675.81;5090543;28;20051;-66
2021/05/03 02:58:03;;;;;;;19.58;13.65;;;;;;;5.65;79.12;96678.22;5091529;28;20052;-66
2021/05/03 03:00:31;;;;;;;18.98;13.20;;;;;;;5.67;79.55;96675.22;5058718;28;20057;-67
2021/05/03 03:02:58;;;;;;;19.10;13.05;;;;;;;5.59;79.47;96673.94;5051578;28;20037;-67
2021/05/03 03:05:25;;;;;;;16.88;12.95;;;;;;;5.64;79.43;96678.50;5049709;28;20045;-66
2021/05/03 03:07:52;;;;;;;17.25;12.80;;;;;;;5.68;79.25;96676.84;5051034;28;20044;-66
2021/05/03 03:10:18;;;;;;;20.52;14.15;;;;;;;5.70;79.09;96678.19;5050211;28;20049;-67
2021/05/03 03:12:45;;;;;;;19.13;13.80;;;;;;;5.76;79.10;96682.47;5050515;28;20519;-67
2021/05/03 03:15:14;;;;;;;20.42;13.60;;;;;;;5.82;78.89;96685.94;5050577;28;20129;-67
2021/05/03 03:17:40;;;;;;;17.70;13.00;;;;;;;5.80;78.57;96688.13;5050022;28;20124;-67
2021/05/03 03:20:08;;;;;;;18.83;13.25;;;;;;;5.84;78.37;96689.19;5050754;28;20415;-67
2021/05/03 03:22:36;;;;;;;18.58;13.50;;;;;;;5.85;78.41;96690.81;5086393;28;20043;-67
2021/05/03 03:25:03;;;;;;;20.67;13.50;;;;;;;5.79;78.21;96697.31;5091029;28;20051;-66
2021/05/03 03:27:29;;;;;;;18.60;13.70;;;;;;;5.86;78.52;96697.84;5089891;28;20055;-67
2021/05/03 03:29:56;;;;;;;19.90;14.25;;;;;;;5.91;78.30;96692.44;5068325;28;20076;-67
2021/05/03 03:32:23;;;;;;;19.77;14.07;;;;;;;5.94;78.53;96699.97;5049636;28;20045;-66
2021/05/03 03:34:48;;;;;;;20.33;14.05;;;;;;;6.03;78.28;96699.38;5050371;28;20048;-67
2021/05/03 03:37:15;;;;;;;20.05;13.82;;;;;;;5.98;77.82;96698.31;5049918;28;20071;-66
2021/05/03 03:39:42;;;;;;;18.38;13.35;;;;;;;5.97;78.21;96699.41;5049562;28;20550;-66
2021/05/03 03:42:08;;;;;;;20.55;14.27;;;;;;;5.88;78.35;96698.34;5049985;28;20075;-67
2021/05/03 03:44:34;;;;;;;17.13;13.27;;;;;;;5.87;78.66;96704.84;5049592;28;20451;-66
2021/05/03 03:47:00;;;;;;;20.38;14.05;;;;;;;5.89;78.43;96704.56;5050967;28;20067;-66
2021/05/03 03:49:26;;;;;;;22.75;13.82;;;;;;;5.89;78.45;96715.38;5049406;28;20068;-67
2021/05/03 03:51:52;;;;;;;21.60;14.05;;;;;;;5.88;78.47;96714.56;5075357;28;20069;-67
2021/05/03 03:54:18;;;;;;;22.20;14.30;;;;;;;5.88;78.47;96719.97;5089398;28;20418;-67
2021/05/03 03:56:45;;;;;;;19.40;13.77;;;;;;;5.91;78.59;96719.47;5090719;28;20685;-67
2021/05/03 03:59:12;;;;;;;19.02;14.05;;;;;;;5.93;78.56;96722.69;5079311;28;20090;-67
2021/05/03 04:01:38;;;;;;;20.88;14.55;;;;;;;5.89;78.48;96721.56;5050068;28;20413;-66
2021/05/03 04:04:13;;;;;;;24.65;15.00;;;;;;;5.87;78.48;96722.97;5049278;28;20045;-67
2021/05/03 04:06:44;;;;;;;22.52;14.35;;;;;;;5.89;78.60;96726.19;5049548;28;20114;-67
2021/05/03 04:09:16;;;;;;;21.90;14.82;;;;;;;5.91;78.59;96724.84;5050199;28;20507;-67
2021/05/03 04:11:59;;;;;;;20.20;14.23;;;;;;;5.88;78.63;96725.38;5049067;28;20535;-66
2021/05/03 04:25:26;;;;;;;23.88;14.88;;;;;;;5.78;78.68;96738.13;5088744;28;20127;-66
2021/05/03 04:27:52;;;;;;;21.63;14.93;;;;;;;5.75;78.75;96742.22;5089970;28;20586;-66
2021/05/03 04:30:20;;;;;;;23.02;15.23;;;;;;;5.74;78.79;96749.50;5060326;28;20047;-66
2021/05/03 04:32:46;;;;;;;22.27;15.25;;;;;;;5.76;78.81;96750.03;5049533;28;20045;-66
2021/05/03 04:35:12;;;;;;;22.85;14.73;;;;;;;5.79;78.90;96756.75;5049349;28;20060;-66
2021/05/03 04:37:38;;;;;;;25.20;15.10;;;;;;;5.79;78.70;96750.56;5049239;28;20076;-66
2021/05/03 04:40:05;;;;;;;21.70;14.90;;;;;;;5.75;78.58;96744.91;5049412;28;20095;-66
2021/05/03 04:42:31;;;;;;;22.83;15.38;;;;;;;5.73;78.86;96755.19;5049094;28;20041;-66
2021/05/03 04:44:57;;;;;;;24.88;14.93;;;;;;;5.75;79.06;96753.03;5050329;28;20041;-66
2021/05/03 04:47:24;;;;;;;21.17;14.57;;;;;;;5.75;78.53;96747.63;5048695;28;20048;-66
2021/05/03 04:49:50;;;;;;;22.85;15.43;;;;;;;5.66;78.40;96760.06;5049990;28;20045;-66
2021/05/03 04:52:16;;;;;;;25.63;15.90;;;;;;;5.68;78.52;96763.31;5079319;28;20078;-66
2021/05/03 04:54:41;;;;;;;21.00;14.90;;;;;;;5.72;78.48;96764.38;5089702;28;20086;-66
2021/05/03 04:57:07;;;;;;;21.25;15.02;;;;;;;5.69;78.36;96759.50;5089008;28;20044;-66
2021/05/03 04:59:33;;;;;;;21.10;14.27;;;;;;;5.62;78.28;96757.09;5072855;28;20049;-67
2021/05/03 05:01:59;;;;;;;23.27;13.93;;;;;;;5.60;78.35;96755.78;5049562;28;20053;-67
2021/05/03 05:04:26;;;;;;;21.42;14.43;;;;;;;5.57;78.22;96759.03;5050296;28;20045;-67
2021/05/03 05:06:55;;;;;;;20.10;14.32;;;;;;;5.64;78.65;96762.25;5053426;28;20049;-67
2021/05/03 05:09:21;;;;;;;20.73;14.50;;;;;;;5.63;78.51;96763.31;5051687;28;20057;-66
2021/05/03 05:11:47;;;;;;;19.58;13.18;;;;;;;5.65;78.41;96766.56;5053613;28;20573;-66
2021/05/03 05:14:13;;;;;;;20.40;14.27;;;;;;;5.61;78.57;96768.19;5051776;28;20068;-67
2021/05/03 05:16:39;;;;;;;21.60;14.48;;;;;;;5.62;78.36;96770.63;5053232;28;20060;-67
2021/05/03 05:19:05;;;;;;;23.48;15.40;;;;;;;5.68;78.61;96777.63;5052285;28;20057;-67
2021/05/03 05:21:35;;;;;;;20.02;14.05;;;;;;;5.81;78.43;96778.13;5071820;28;20150;-67
2021/05/03 05:24:01;;;;;;;19.52;14.20;;;;;;;5.74;78.29;96773.84;5092793;28;20102;-68
2021/05/03 05:26:27;;;;;;;20.48;13.95;;;;;;;5.74;78.01;96784.63;5092747;28;20048;-67
2021/05/03 05:28:53;;;;;;;19.55;13.93;;;;;;;5.77;77.92;96777.84;5081877;28;20079;-66
2021/05/03 05:31:19;;;;;;;21.63;13.95;;;;;;;5.82;77.61;96783.25;5051469;28;20053;-66
2021/05/03 05:33:45;;;;;;;20.77;14.02;;;;;;;5.79;77.48;96789.19;5053412;28;20045;-72
2021/05/03 05:36:11;;;;;;;19.58;13.93;;;;;;;5.87;77.72;96783.22;5051316;28;20068;-71
2021/05/03 05:38:38;;;;;;;18.02;12.85;;;;;;;5.94;77.18;96789.16;5053155;28;20065;-72
2021/05/03 05:41:04;;;;;;;16.65;12.60;;;;;;;5.94;77.01;96783.75;5051879;28;20471;-71
2021/05/03 05:43:30;;;;;;;17.33;12.48;;;;;;;5.93;76.95;96784.03;5053104;28;20041;-72
2021/05/03 05:45:56;;;;;;;16.25;12.40;;;;;;;6.03;77.12;96792.09;5052989;28;20064;-74
2021/05/03 05:48:22;;;;;;;16.25;11.98;;;;;;;6.04;75.92;96793.72;5051960;28;20086;-72
2021/05/03 05:50:48;;;;;;;17.40;12.20;;;;;;;6.07;76.04;96792.38;5057399;28;20086;-72
2021/05/03 05:53:14;;;;;;;17.45;12.45;;;;;;;6.10;75.87;96797.19;5090542;28;20177;-72
2021/05/03 05:55:41;;;;;;;17.95;11.80;;;;;;;6.12;75.90;96800.44;5091057;28;20468;-72
2021/05/03 05:58:07;;;;;;;16.40;11.85;;;;;;;6.09;75.64;96799.09;5091461;28;20075;-71
2021/05/03 06:00:33;;;;;;;19.55;12.18;;;;;;;6.08;75.74;96804.78;5072171;28;20048;-72
2021/05/03 06:02:59;;;;;;;17.48;12.65;;;;;;;6.07;75.63;96808.59;5071720;28;20044;-72
2021/05/03 06:05:26;;;;;;;17.35;11.80;;;;;;;6.09;76.03;96807.22;5072184;28;20048;-72
2021/05/03 06:07:52;;;;;;;16.75;12.00;;;;;;;6.13;75.66;96802.06;5071812;28;20565;-72
2021/05/03 06:10:18;;;;;;;16.40;12.05;;;;;;;6.16;75.54;96806.91;5071737;28;20056;-72
2021/05/03 06:12:45;;;;;;;17.30;11.77;;;;;;;6.22;75.97;96816.63;5071827;28;20052;-72
2021/05/03 06:15:11;;;;;;;16.52;11.77;;;;;;;6.26;75.71;96812.25;5070090;28;20048;-72
2021/05/03 06:17:37;;;;;;;16.17;11.38;;;;;;;6.32;75.84;96811.16;5071924;28;20049;-72
2021/05/03 06:20:04;;;;;;;18.23;12.43;;;;;;;6.39;75.16;96817.06;5070780;28;20049;-71
2021/05/03 06:22:31;;;;;;;17.83;11.93;;;;;;;6.44;74.57;96813.53;5090179;28;20126;-72
2021/05/03 06:24:59;;;;;;;15.68;11.70;;;;;;;6.47;74.21;96802.97;5091286;28;20418;-72
2021/05/03 06:27:25;;;;;;;15.75;11.23;;;;;;;6.50;74.45;96813.19;5091944;28;20040;-72
2021/05/03 06:29:52;;;;;;;16.55;12.25;;;;;;;6.50;73.91;96818.59;5077111;28;20048;-72
2021/05/03 06:32:18;;;;;;;18.48;12.52;;;;;;;6.56;73.88;96816.69;5071245;28;20060;-72
2021/05/03 06:34:44;;;;;;;20.38;12.02;;;;;;;6.69;74.32;96820.66;5071068;28;20048;-72
2021/05/03 06:37:10;;;;;;;16.08;11.80;;;;;;;6.88;75.12;96824.28;5070991;28;20518;-72
2021/05/03 06:39:37;;;;;;;18.27;11.88;;;;;;;7.03;72.85;96826.88;5071587;28;20059;-73
2021/05/03 06:42:04;;;;;;;19.27;11.50;;;;;;;7.13;71.95;96825.19;5070525;28;20056;-72
2021/05/03 06:44:33;;;;;;;16.48;11.80;;;;;;;7.18;71.95;96827.84;5071694;28;20102;-72
2021/05/03 06:47:01;;;;;;;15.73;10.85;;;;;;;7.17;72.35;96832.47;5070744;28;20407;-72
2021/05/03 06:49:27;;;;;;;15.57;11.25;;;;;;;7.25;71.94;96831.03;5071377;28;20045;-72
2021/05/03 06:51:53;;;;;;;16.38;11.20;;;;;;;7.31;71.52;96830.72;5083239;28;20054;-71
2021/05/03 06:54:18;;;;;;;14.73;10.98;;;;;;;7.34;72.27;96837.44;5091308;28;20547;-74
2021/05/03 06:56:44;;;;;;;14.20;10.95;;;;;;;7.46;71.04;96829.75;5090568;28;20051;-71
2021/05/03 06:59:10;;;;;;;15.73;10.77;;;;;;;7.57;70.58;96825.84;5081511;28;20070;-71
2021/05/03 07:01:36;;;;;;;13.73;10.38;;;;;;;7.59;69.90;96831.78;5070721;28;20049;-72
2021/05/03 07:04:04;;;;;;;17.10;9.70;;;;;;;7.65;67.84;96829.03;5070385;28;20122;-74
2021/05/03 07:06:31;;;;;;;14.35;10.68;;;;;;;7.71;68.84;96825.97;5071190;28;20044;-74
2021/05/03 07:08:57;;;;;;;12.45;9.52;;;;;;;7.87;69.57;96832.03;5070494;28;20045;-72
2021/05/03 07:11:28;;;;;;;13.38;9.80;;;;;;;8.06;68.36;96834.78;5070847;28;20571;-73
2021/05/03 07:13:54;;;;;;;13.88;9.98;;;;;;;8.02;67.29;96831.84;5070369;28;20049;-73
2021/05/03 07:16:20;;;;;;;15.15;10.75;;;;;;;8.15;67.55;96832.25;5070891;28;20048;-74
2021/05/03 07:18:45;;;;;;;16.05;10.98;;;;;;;8.30;68.20;96832.03;5070253;28;20044;-74
2021/05/03 07:21:12;;;;;;;14.65;10.98;;;;;;;8.43;68.71;96825.94;5077123;28;20045;-73
2021/05/03 07:23:39;;;;;;;16.40;11.60;;;;;;;8.58;66.52;96828.44;5090837;28;20040;-74
2021/05/03 07:26:07;;;;;;;15.13;10.75;;;;;;;8.68;65.24;96837.53;5090194;28;20044;-72
2021/05/03 07:28:33;;;;;;;15.60;10.88;;;;;;;8.67;64.59;96839.47;5089389;28;20044;-73
2021/05/03 07:30:59;;;;;;;15.93;11.23;;;;;;;8.78;64.94;96831.97;5069972;28;20122;-73
2021/05/03 07:33:26;;;;;;;15.60;11.43;;;;;;;8.85;64.68;96837.81;5070467;28;20043;-74
2021/05/03 07:35:52;;;;;;;15.43;10.77;;;;;;;8.95;64.50;96848.53;5069999;28;20048;-74
2021/05/03 07:38:19;;;;;;;13.82;10.60;;;;;;;9.12;65.60;96843.34;5070803;28;20061;-74
2021/05/03 07:40:47;;;;;;;13.75;9.68;;;;;;;9.27;65.16;96838.78;5069930;28;20139;-74
2021/05/03 07:43:13;;;;;;;13.73;10.20;;;;;;;9.51;64.92;96834.03;5070065;28;20048;-74
2021/05/03 07:45:39;;;;;;;14.15;9.63;;;;;;;9.70;61.45;96835.84;5070169;28;20044;-71
2021/05/03 07:48:05;;;;;;;11.98;8.43;;;;;;;9.58;58.41;96830.91;5069965;28;20044;-74
2021/05/03 07:50:31;;;;;;;13.23;9.05;;;;;;;9.49;58.76;96836.22;5071191;28;20164;-72
2021/05/03 07:52:58;;;;;;;12.77;8.32;;;;;;;9.33;58.34;96837.59;5090078;28;20430;-72
2021/05/03 07:55:25;;;;;;;13.50;9.10;;;;;;;10.22;57.87;96831.03;5089787;28;20086;-72
2021/05/03 07:57:51;;;;;;;11.38;8.57;;;;;;;10.80;56.88;96825.69;5089839;28;20040;-71
2021/05/03 08:00:18;;;;;;;10.52;8.07;;;;;;;10.82;55.27;96836.31;5071890;28;20055;-71
2021/05/03 08:02:44;;;;;;;14.32;8.45;;;;;;;11.58;54.75;96837.16;5061564;28;20055;-72
2021/05/03 08:05:11;;;;;;;11.43;8.02;;;;;;;12.51;49.11;96836.25;5070339;28;20425;-72
2021/05/03 08:07:38;;;;;;;10.45;7.15;;;;;;;12.78;48.16;96827.75;5069652;28;20083;-72
2021/05/03 08:10:04;;;;;;;12.15;8.00;;;;;;;12.56;52.10;96829.84;5069943;28;20113;-72
2021/05/03 08:12:31;;;;;;;13.35;7.90;;;;;;;13.60;52.31;96827.91;5069531;28;20582;-72
2021/05/03 08:14:59;;;;;;;11.13;7.95;;;;;;;14.28;45.19;96833.44;5070194;28;20045;-72
2021/05/03 08:17:25;;;;;;;12.65;8.00;;;;;;;13.82;45.80;96833.13;5069650;28;20044;-71
2021/05/03 08:19:51;;;;;;;14.10;9.27;;;;;;;13.47;47.63;96837.13;5069950;28;20097;-72
2021/05/03 08:22:17;;;;;;;12.23;8.52;;;;;;;12.86;49.88;96839.03;5085766;28;20573;-72
2021/05/03 08:24:43;;;;;;;14.77;8.88;;;;;;;12.99;47.01;96835.34;5089443;28;20044;-72
2021/05/03 08:27:09;;;;;;;12.48;8.10;;;;;;;12.33;47.48;96837.34;5090323;28;20040;-72
2021/05/03 08:29:36;;;;;;;12.07;7.63;;;;;;;11.87;49.54;96836.69;5077879;28;20384;-71
2021/05/03 08:32:04;;;;;;;12.57;7.75;;;;;;;12.58;47.06;96838.50;5069940;28;20408;-71
2021/05/03 08:34:30;;;;;;;15.95;7.90;;;;;;;12.41;48.92;96840.09;5069312;28;20564;-72
2021/05/03 08:36:57;;;;;;;12.40;8.50;;;;;;;12.12;51.03;96843.38;5069968;28;20443;-72
2021/05/03 08:39:25;;;;;;;16.15;8.98;;;;;;;11.70;51.29;96840.13;5071038;28;20045;-72
2021/05/03 08:41:51;;;;;;;14.50;8.73;;;;;;;11.39;52.37;96847.47;5074502;28;20045;-71
2021/05/03 08:44:17;;;;;;;11.43;8.48;;;;;;;11.13;51.93;96848.09;5073972;28;20105;-71
2021/05/03 08:46:45;;;;;;;17.83;9.13;;;;;;;10.92;54.09;96841.50;5073322;28;20052;-72
2021/05/03 08:49:18;;;;;;;12.82;8.65;;;;;;;10.74;52.31;96846.00;5073854;28;20037;-71
2021/05/03 08:51:49;;;;;;;12.00;8.57;;;;;;;10.50;52.25;96835.38;5084329;28;20071;-71
2021/05/03 08:54:20;;;;;;;15.68;9.35;;;;;;;10.50;53.08;96834.56;5093800;28;20059;-71
2021/05/03 08:56:47;;;;;;;11.05;7.25;;;;;;;11.21;51.99;96830.97;5093423;28;20044;-71
2021/05/03 08:59:13;;;;;;;11.65;7.15;;;;;;;12.70;50.13;96828.56;5083488;28;20041;-71
2021/05/03 09:01:43;;;;;;;9.93;7.30;;;;;;;13.57;48.02;96826.63;5073237;28;20107;-72
2021/05/03 09:04:10;;;;;;;9.90;6.60;;;;;;;13.94;42.76;96828.91;5072725;28;20041;-72
2021/05/03 09:06:36;;;;;;;10.25;6.75;;;;;;;13.54;43.43;96829.22;5073358;28;20045;-72
2021/05/03 09:09:05;;;;;;;7.38;6.10;;;;;;;13.88;48.58;96819.28;5072142;28;20063;-71
2021/05/03 09:11:31;;;;;;;12.10;7.50;;;;;;;14.51;41.22;96814.81;5073734;28;20052;-72
2021/05/03 09:14:07;;;;;;;9.30;6.95;;;;;;;13.63;41.83;96816.31;5072835;28;20049;-72
2021/05/03 09:16:34;;;;;;;9.85;7.45;;;;;;;13.03;45.74;96814.44;5073429;28;20048;-72
2021/05/03 09:19:03;;;;;;;8.25;6.50;;;;;;;12.27;46.37;96821.13;5072702;28;20040;-72
2021/05/03 09:21:31;;;;;;;6.43;4.20;;;;;;;11.47;43.46;96816.72;5082400;28;20452;-72
2021/05/03 09:24:08;;;;;;;7.53;5.18;;;;;;;10.66;42.96;96828.47;5093799;28;20059;-72
2021/05/03 09:26:38;;;;;;;6.30;4.63;;;;;;;10.29;43.49;96826.03;5092627;28;20044;-71
2021/05/03 09:29:32;;;;;;;7.80;5.38;;;;;;;10.05;46.95;96821.56;5086943;28;20060;-71
2021/05/03 09:32:04;;;;;;;11.45;6.93;;;;;;;10.23;50.20;96824.47;5066089;28;20048;-71
2021/05/03 09:34:33;;;;;;;10.15;7.43;;;;;;;10.45;50.85;96819.16;5073053;28;20044;-72
2021/05/03 09:37:34;;;;;;;10.13;7.20;;;;;;;10.26;50.28;96815.75;5072731;28;20044;-72
2021/05/03 09:40:03;;;;;;;10.85;7.22;;;;;;;10.18;51.50;96811.81;5072099;28;20072;-71
2021/05/03 09:42:46;;;;;;;12.68;7.75;;;;;;;10.26;52.73;96816.53;5073065;28;20131;-72
2021/05/03 09:45:14;;;;;;;10.95;7.57;;;;;;;10.30;50.74;96816.75;5071640;28;20045;-71
2021/05/03 09:47:41;;;;;;;8.38;5.72;;;;;;;10.16;48.46;96828.41;5073022;28;20048;-72
2021/05/03 09:50:12;;;;;;;6.65;4.72;;;;;;;10.05;50.32;96821.56;5071471;28;20044;-71
2021/05/03 09:52:38;;;;;;;8.23;4.55;;;;;;;9.88;51.11;96829.53;5091215;28;20102;-72
2021/05/03 09:55:38;;;;;;;7.40;3.55;;;;;;;9.76;49.99;96826.47;5092352;28;20048;-71
2021/05/03 09:58:16;;;;;;;8.65;5.15;;;;;;;9.70;48.58;96833.13;5091736;28;20077;-72
2021/05/03 10:00:44;;;;;;;7.35;4.72;;;;;;;9.68;49.50;96836.97;5092705;28;20048;-72
2021/05/03 10:03:34;;;;;;;6.88;4.72;;;;;;;9.74;51.55;96847.75;5091745;28;20059;-71
2021/05/03 10:06:03;;;;;;;8.15;5.20;;;;;;;9.71;50.05;96842.91;5092622;28;20048;-71
2021/05/03 10:08:29;;;;;;;7.97;4.60;;;;;;;9.61;50.16;96844.72;5092417;28;20066;-73
2021/05/03 10:10:58;;;;;;;5.68;3.90;;;;;;;9.29;49.30;96847.44;5091579;28;20076;-74
2021/05/03 10:13:24;;;;;;;6.45;4.20;;;;;;;8.96;52.95;96858.28;5092326;28;20406;-73
2021/05/03 10:15:54;;;;;;;5.95;4.15;;;;;;;8.21;55.61;96861.75;5091781;28;20052;-74
2021/05/03 10:18:21;;;;;;;5.50;4.13;;;;;;;7.73;58.08;96863.66;5092423;28;20074;-74
2021/05/03 10:20:48;;;;;;;7.78;5.20;;;;;;;7.58;64.91;96862.69;5091583;28;20052;-73
2021/05/03 10:23:18;;;;;;;13.80;6.85;;;;;;;7.52;68.44;96850.31;5091993;28;20052;-73
2021/05/03 10:25:44;;;;;;;10.52;7.00;;;;;;;7.39;69.65;96845.53;5091807;28;20154;-74
2021/05/03 10:28:10;;;;;;;10.32;6.90;;;;;;;7.48;71.96;96834.91;5091637;28;20040;-74
2021/05/03 10:30:41;;;;;;;11.60;7.40;;;;;;;7.93;73.30;96822.72;5081809;28;20036;-74
2021/05/03 10:33:09;;;;;;;10.82;7.40;;;;;;;8.54;73.08;96821.97;5091026;28;20036;-74
2021/05/03 10:35:39;;;;;;;8.98;6.22;;;;;;;8.84;67.66;96809.84;5092499;28;20120;-72
2021/05/03 10:38:07;;;;;;;8.20;4.72;;;;;;;8.94;60.28;96808.91;5090951;28;20548;-71
2021/05/03 10:40:44;;;;;;;8.40;4.97;;;;;;;9.24;56.85;96807.59;5092434;28;20067;-72
2021/05/03 10:43:28;;;;;;;7.22;4.30;;;;;;;9.58;55.05;96801.00;5090819;28;20048;-72
2021/05/03 10:48:59;;;;;;;6.88;4.57;;;;;;;10.54;51.88;96784.59;5090521;28;20054;-72
2021/05/03 10:51:40;;;;;;;7.68;4.78;;;;;;;10.76;50.72;96785.78;5090489;28;20051;-72
2021/05/03 10:54:47;;;;;;;6.70;4.60;;;;;;;10.83;52.74;96778.78;5091817;28;20048;-72
2021/05/03 10:57:37;;;;;;;12.10;4.90;;;;;;;11.01;47.57;96776.16;5090971;28;20051;-72
2021/05/03 11:00:29;;;;;;;7.93;5.45;;;;;;;11.06;47.78;96765.94;5070813;28;20068;-75
2021/05/03 11:02:56;;;;;;;6.47;4.60;;;;;;;11.31;45.83;96774.59;5071330;28;20052;-74
2021/05/03 11:05:25;;;;;;;9.98;5.38;;;;;;;11.59;49.98;96765.13;5069983;28;20045;-74
2021/05/03 11:08:19;;;;;;;5.93;5.00;;;;;;;12.05;50.96;96761.13;5071312;28;20044;-72
2021/05/03 11:10:57;;;;;;;4.85;3.03;;;;;;;12.14;42.44;96764.69;5070818;28;20045;-72
2021/05/03 11:13:49;;;;;;;4.57;3.15;;;;;;;12.27;43.97;96758.31;5069954;28;20040;-72
2021/05/03 11:16:46;;;;;;;5.30;3.40;;;;;;;11.95;44.71;96756.78;5071057;28;20147;-72
2021/05/03 11:19:47;;;;;;;5.32;3.40;;;;;;;11.81;43.55;96760.72;5070101;28;20056;-73
2021/05/03 11:22:17;;;;;;;5.00;3.50;;;;;;;11.62;43.71;96763.69;5085319;28;20105;-72
2021/05/03 11:24:47;;;;;;;4.93;3.50;;;;;;;11.45;43.77;96758.97;5091536;28;20044;-72
2021/05/03 11:27:17;;;;;;;9.65;3.58;;;;;;;11.63;45.52;96757.91;5090019;28;20040;-72
2021/05/03 11:29:48;;;;;;;5.68;3.97;;;;;;;11.90;46.13;96747.91;5081328;28;20097;-72
2021/05/03 11:32:15;;;;;;;5.22;4.03;;;;;;;12.32;45.66;96740.13;5089785;28;20121;-72
2021/05/03 11:34:57;;;;;;;5.18;3.88;;;;;;;12.69;41.74;96742.28;5091042;28;20093;-72
2021/05/03 11:37:32;;;;;;;10.98;3.50;;;;;;;12.67;41.26;96736.31;5090362;28;20110;-72
2021/05/03 11:40:05;;;;;;;6.28;3.97;;;;;;;12.91;44.49;96732.28;5090212;28;20067;-72
2021/05/03 11:45:31;;;;;;;7.50;3.90;;;;;;;12.89;38.85;96727.13;5090015;28;20046;-72
2021/05/03 11:47:59;;;;;;;6.82;4.40;;;;;;;13.10;42.82;96719.03;5072546;28;20071;-72
2021/05/03 11:50:26;;;;;;;5.50;3.92;;;;;;;13.29;40.68;96721.44;5089734;28;20384;-71